Time;durP1;ratioP1;P1;durP2;ratioP2;P2;SDS_P1;SDS_P2;PMS_P1;PMS_P2;Temp;Humidity;BMP_temperature;BMP_pressure;BME280_temperature;BME280_humidity;BME280_pressure;Samples;Min_cycle;Max_cycle;Signal;HPM_P1;HPM_P2
2021/10/18 00:00:11;;;;;;;3.90;2.40;;;;;;;;;;4915181;29;20047;-37
2021/10/18 00:02:40;;;;;;;3.60;2.30;;;;;;;;;;4915607;29;20032;-37
2021/10/18 00:05:06;;;;;;;3.95;2.65;;;;;;;;;;4913980;29;20085;-37
2021/10/18 00:07:31;;;;;;;3.60;2.25;;;;;;;;;;4915191;29;20104;-37
2021/10/18 00:09:57;;;;;;;3.67;2.25;;;;;;;;;;4915304;29;20468;-37
2021/10/18 00:12:23;;;;;;;2.85;1.77;;;;;;;;;;4914004;29;20039;-37
2021/10/18 00:14:49;;;;;;;4.03;2.40;;;;;;;;;;4915010;29;20126;-37
2021/10/18 00:17:14;;;;;;;3.72;2.10;;;;;;;;;;4915225;29;20032;-37
2021/10/18 00:19:39;;;;;;;4.97;2.97;;;;;;;;;;4915132;29;20471;-37
2021/10/18 00:22:05;;;;;;;5.78;2.70;;;;;;;;;;4915371;29;20399;-37
2021/10/18 00:24:30;;;;;;;4.50;2.60;;;;;;;;;;4915349;29;20157;-37
2021/10/18 00:26:56;;;;;;;2.90;1.73;;;;;;;;;;4915027;29;20032;-37
2021/10/18 00:29:21;;;;;;;4.05;1.98;;;;;;;;;;4913852;29;20028;-38
2021/10/18 00:31:47;;;;;;;2.53;2.28;;;;;;;;;;4914931;29;20584;-37
2021/10/18 00:34:12;;;;;;;4.18;2.38;;;;;;;;;;4915235;29;20399;-37
2021/10/18 00:36:38;;;;;;;3.28;2.17;;;;;;;;;;4914986;29;20032;-38
2021/10/18 00:39:03;;;;;;;3.05;1.52;;;;;;;;;;4914887;29;20028;-37
2021/10/18 00:41:29;;;;;;;3.20;2.17;;;;;;;;;;4914997;29;20032;-37
2021/10/18 00:43:56;;;;;;;2.42;2.15;;;;;;;;;;4914889;29;20035;-37
2021/10/18 00:46:23;;;;;;;3.60;2.17;;;;;;;;;;4914924;29;20032;-37
2021/10/18 00:48:50;;;;;;;2.00;1.65;;;;;;;;;;4914874;29;20028;-37
2021/10/18 00:51:16;;;;;;;2.63;1.85;;;;;;;;;;4914933;29;20040;-37
2021/10/18 00:53:42;;;;;;;2.50;1.98;;;;;;;;;;4914977;29;20374;-37
2021/10/18 00:56:07;;;;;;;2.65;1.77;;;;;;;;;;4914656;29;20044;-37
2021/10/18 00:58:33;;;;;;;3.03;2.05;;;;;;;;;;4913619;29;20027;-37
2021/10/18 01:00:58;;;;;;;4.30;1.67;;;;;;;;;;4914711;29;20552;-37
2021/10/18 01:03:24;;;;;;;5.80;1.85;;;;;;;;;;4914758;29;20111;-37
2021/10/18 01:05:51;;;;;;;2.28;1.70;;;;;;;;;;4914919;29;20024;-37
2021/10/18 01:08:16;;;;;;;4.60;2.63;;;;;;;;;;4914767;29;20111;-37
2021/10/18 01:10:42;;;;;;;3.63;2.17;;;;;;;;;;4914748;29;20119;-37
2021/10/18 01:13:07;;;;;;;7.07;2.25;;;;;;;;;;4916983;29;20032;-37
2021/10/18 01:15:33;;;;;;;3.13;1.90;;;;;;;;;;4918129;29;20032;-37
2021/10/18 01:17:58;;;;;;;2.25;1.60;;;;;;;;;;4918234;29;20094;-37
2021/10/18 01:20:27;;;;;;;3.97;2.60;;;;;;;;;;4918245;29;20065;-37
2021/10/18 01:22:53;;;;;;;4.05;2.13;;;;;;;;;;4918236;29;20026;-37
2021/10/18 01:25:18;;;;;;;2.55;1.65;;;;;;;;;;4918377;29;20032;-37
2021/10/18 01:27:44;;;;;;;3.30;2.15;;;;;;;;;;4918023;29;20038;-37
2021/10/18 01:30:09;;;;;;;1.95;1.73;;;;;;;;;;4917899;29;20552;-37
2021/10/18 01:32:35;;;;;;;4.55;2.10;;;;;;;;;;4917737;29;20056;-37
2021/10/18 01:35:00;;;;;;;3.90;2.08;;;;;;;;;;4916467;29;20074;-37
2021/10/18 01:37:26;;;;;;;5.25;2.10;;;;;;;;;;4917792;29;20067;-37
2021/10/18 01:39:51;;;;;;;3.63;2.33;;;;;;;;;;4917726;29;20036;-37
2021/10/18 01:42:16;;;;;;;4.40;2.20;;;;;;;;;;4917838;29;20297;-37
2021/10/18 01:44:42;;;;;;;3.45;2.30;;;;;;;;;;4917729;29;20035;-37
2021/10/18 01:47:07;;;;;;;3.28;2.30;;;;;;;;;;4917805;29;20036;-37
2021/10/18 01:49:33;;;;;;;8.68;2.67;;;;;;;;;;4916506;29;20028;-37
2021/10/18 01:51:58;;;;;;;4.57;2.80;;;;;;;;;;4917427;29;20548;-37
2021/10/18 01:54:23;;;;;;;4.18;2.72;;;;;;;;;;4916379;29;20088;-37
2021/10/18 01:56:49;;;;;;;3.13;2.05;;;;;;;;;;4917701;29;20020;-37
2021/10/18 01:59:14;;;;;;;4.18;2.50;;;;;;;;;;4917399;29;20036;-37
2021/10/18 02:01:40;;;;;;;3.65;2.33;;;;;;;;;;4917505;29;20024;-37
2021/10/18 02:04:05;;;;;;;4.07;2.08;;;;;;;;;;4917346;29;20123;-37
2021/10/18 02:06:30;;;;;;;3.28;2.05;;;;;;;;;;4917499;29;20032;-37
2021/10/18 02:08:57;;;;;;;3.08;2.03;;;;;;;;;;4917360;29;20035;-37
2021/10/18 02:11:23;;;;;;;4.00;1.90;;;;;;;;;;4917228;29;20012;-37
2021/10/18 02:13:49;;;;;;;4.30;2.53;;;;;;;;;;4917033;29;20392;-37
2021/10/18 02:16:14;;;;;;;3.63;2.42;;;;;;;;;;4917268;29;20069;-37
2021/10/18 02:18:39;;;;;;;3.20;2.28;;;;;;;;;;4917090;29;20091;-38
2021/10/18 02:21:05;;;;;;;3.45;2.28;;;;;;;;;;4917099;29;20016;-37
2021/10/18 02:23:31;;;;;;;4.35;2.22;;;;;;;;;;4916848;29;20079;-37
2021/10/18 02:25:56;;;;;;;3.28;2.15;;;;;;;;;;4916809;29;20024;-37
2021/10/18 02:28:22;;;;;;;3.45;2.50;;;;;;;;;;4916963;29;20036;-37
2021/10/18 02:30:48;;;;;;;4.00;2.40;;;;;;;;;;4916849;29;20024;-37
2021/10/18 02:33:13;;;;;;;3.05;2.45;;;;;;;;;;4916532;29;20048;-37
2021/10/18 02:35:38;;;;;;;4.60;2.58;;;;;;;;;;4916842;29;20515;-37
2021/10/18 02:38:04;;;;;;;5.90;2.22;;;;;;;;;;4916700;29;20087;-38
2021/10/18 02:40:29;;;;;;;4.97;1.95;;;;;;;;;;4916783;29;20058;-38
2021/10/18 02:42:55;;;;;;;2.63;1.75;;;;;;;;;;4916799;29;20115;-37
2021/10/18 02:45:20;;;;;;;4.55;2.40;;;;;;;;;;4916662;29;20107;-37
2021/10/18 02:47:45;;;;;;;4.30;2.55;;;;;;;;;;4916589;29;20496;-37
2021/10/18 02:50:11;;;;;;;4.13;1.98;;;;;;;;;;4916444;29;20028;-37
2021/10/18 02:52:36;;;;;;;3.05;2.40;;;;;;;;;;4916490;29;20060;-37
2021/10/18 02:55:02;;;;;;;3.42;2.40;;;;;;;;;;4916223;29;20040;-37
2021/10/18 02:57:27;;;;;;;2.38;1.95;;;;;;;;;;4916427;29;20051;-37
2021/10/18 02:59:53;;;;;;;3.83;2.00;;;;;;;;;;4916455;29;20032;-38
2021/10/18 03:02:18;;;;;;;3.05;2.33;;;;;;;;;;4916271;29;20080;-37
2021/10/18 03:04:47;;;;;;;4.07;2.25;;;;;;;;;;4915079;29;20027;-38
2021/10/18 03:07:12;;;;;;;4.35;2.85;;;;;;;;;;4916287;29;20032;-37
2021/10/18 03:09:38;;;;;;;2.47;2.17;;;;;;;;;;4916430;29;20387;-37
2021/10/18 03:12:04;;;;;;;4.22;2.13;;;;;;;;;;4916456;29;20489;-37
2021/10/18 03:14:29;;;;;;;4.55;2.38;;;;;;;;;;4916361;29;20500;-37
2021/10/18 03:16:55;;;;;;;2.58;1.95;;;;;;;;;;4914745;29;20492;-37
2021/10/18 03:19:20;;;;;;;4.50;2.25;;;;;;;;;;4916035;29;20020;-41
2021/10/18 03:21:46;;;;;;;5.70;2.70;;;;;;;;;;4915985;29;20107;-37
2021/10/18 03:24:11;;;;;;;4.68;2.45;;;;;;;;;;4915876;29;20037;-37
2021/10/18 03:26:37;;;;;;;3.35;2.20;;;;;;;;;;4916118;29;20063;-38
2021/10/18 03:29:03;;;;;;;3.25;2.17;;;;;;;;;;4915800;29;20028;-37
2021/10/18 03:31:28;;;;;;;2.50;2.10;;;;;;;;;;4915596;29;20547;-38
2021/10/18 03:33:54;;;;;;;4.25;2.40;;;;;;;;;;4915558;29;20051;-37
2021/10/18 03:36:19;;;;;;;3.30;2.03;;;;;;;;;;4915205;29;20071;-37
2021/10/18 03:38:45;;;;;;;3.05;2.20;;;;;;;;;;4915992;29;20096;-37
2021/10/18 03:41:10;;;;;;;2.20;1.63;;;;;;;;;;4915619;29;20474;-38
2021/10/18 03:43:36;;;;;;;5.75;2.63;;;;;;;;;;4915630;29;20486;-37
2021/10/18 03:46:01;;;;;;;4.75;2.10;;;;;;;;;;4915380;29;20036;-37
2021/10/18 03:48:27;;;;;;;2.53;2.30;;;;;;;;;;4915627;29;20020;-37
2021/10/18 03:50:52;;;;;;;4.03;2.55;;;;;;;;;;4915699;29;20595;-37
2021/10/18 03:53:18;;;;;;;4.70;2.22;;;;;;;;;;4915352;29;20071;-37
2021/10/18 03:55:43;;;;;;;3.35;2.50;;;;;;;;;;4915483;29;20036;-37
2021/10/18 03:58:08;;;;;;;7.22;2.53;;;;;;;;;;4915328;29;20084;-37
2021/10/18 04:00:34;;;;;;;4.20;2.22;;;;;;;;;;4915679;29;20039;-37
2021/10/18 04:02:59;;;;;;;4.15;2.17;;;;;;;;;;4915319;29;20039;-37
2021/10/18 04:05:25;;;;;;;3.30;2.05;;;;;;;;;;4915504;29;20080;-37
2021/10/18 04:07:50;;;;;;;4.05;2.25;;;;;;;;;;4915525;29;20035;-37
2021/10/18 04:10:19;;;;;;;2.22;1.75;;;;;;;;;;4915567;29;20028;-37
2021/10/18 04:12:45;;;;;;;4.10;2.75;;;;;;;;;;4915345;29;20028;-37
2021/10/18 04:15:10;;;;;;;3.70;2.70;;;;;;;;;;4915122;29;20098;-37
2021/10/18 04:17:36;;;;;;;4.30;2.55;;;;;;;;;;4915152;29;20032;-37
2021/10/18 04:20:02;;;;;;;2.55;2.20;;;;;;;;;;4915159;29;20028;-36
2021/10/18 04:22:28;;;;;;;3.97;3.55;;;;;;;;;;4915422;29;20059;-37
2021/10/18 04:24:53;;;;;;;4.75;2.10;;;;;;;;;;4915219;29;20506;-39
2021/10/18 04:27:19;;;;;;;2.15;1.85;;;;;;;;;;4915170;29;20463;-38
2021/10/18 04:29:44;;;;;;;3.00;2.17;;;;;;;;;;4915253;29;20036;-37
2021/10/18 04:32:10;;;;;;;3.78;2.33;;;;;;;;;;4914852;29;20066;-37
2021/10/18 04:34:35;;;;;;;5.75;2.53;;;;;;;;;;4914965;29;20041;-37
2021/10/18 04:37:00;;;;;;;4.00;2.40;;;;;;;;;;4915149;29;20115;-37
2021/10/18 04:39:26;;;;;;;3.97;2.40;;;;;;;;;;4915073;29;20503;-37
2021/10/18 04:41:53;;;;;;;2.40;2.15;;;;;;;;;;4914809;29;20012;-37
2021/10/18 04:44:18;;;;;;;4.90;2.50;;;;;;;;;;4915260;29;20161;-37
2021/10/18 04:46:43;;;;;;;2.72;2.05;;;;;;;;;;4915022;29;20024;-37
2021/10/18 04:49:09;;;;;;;4.38;2.40;;;;;;;;;;4918597;29;20153;-37
2021/10/18 04:51:35;;;;;;;2.45;1.80;;;;;;;;;;4918824;29;20387;-37
2021/10/18 04:54:00;;;;;;;10.60;2.90;;;;;;;;;;4918814;29;20048;-37
2021/10/18 04:56:26;;;;;;;4.38;2.20;;;;;;;;;;4918797;29;20019;-37
2021/10/18 04:58:51;;;;;;;2.25;1.90;;;;;;;;;;4918810;29;20527;-37
2021/10/18 05:01:16;;;;;;;3.42;2.15;;;;;;;;;;4918509;29;20488;-37
2021/10/18 05:03:42;;;;;;;3.67;2.38;;;;;;;;;;4918368;29;20032;-37
2021/10/18 05:06:07;;;;;;;3.08;2.15;;;;;;;;;;4918611;29;20055;-36
2021/10/18 05:08:33;;;;;;;4.13;2.33;;;;;;;;;;4918373;29;20098;-37
2021/10/18 05:10:58;;;;;;;4.15;2.33;;;;;;;;;;4918449;29;20024;-38
2021/10/18 05:13:24;;;;;;;4.07;1.90;;;;;;;;;;4918275;29;20119;-37
2021/10/18 05:15:52;;;;;;;6.28;2.00;;;;;;;;;;4918203;29;20039;-37
2021/10/18 05:18:18;;;;;;;3.03;1.73;;;;;;;;;;4918198;29;20209;-37
2021/10/18 05:20:43;;;;;;;2.97;2.20;;;;;;;;;;4918166;29;20030;-37
2021/10/18 05:23:09;;;;;;;2.70;2.10;;;;;;;;;;4918125;29;20040;-37
2021/10/18 05:25:34;;;;;;;3.83;2.65;;;;;;;;;;4918026;29;20024;-37
2021/10/18 05:28:00;;;;;;;4.00;2.30;;;;;;;;;;4917968;29;20096;-37
2021/10/18 05:30:25;;;;;;;4.13;2.65;;;;;;;;;;4918343;29;20035;-37
2021/10/18 05:32:51;;;;;;;5.18;2.10;;;;;;;;;;4917658;29;20051;-42
2021/10/18 05:35:17;;;;;;;3.17;2.03;;;;;;;;;;4917922;29;20036;-37
2021/10/18 05:37:44;;;;;;;4.28;2.30;;;;;;;;;;4918104;29;20039;-37
2021/10/18 05:40:12;;;;;;;2.80;1.75;;;;;;;;;;4917976;29;20485;-37
2021/10/18 05:42:37;;;;;;;4.30;2.65;;;;;;;;;;4918047;29;20103;-37
2021/10/18 05:45:03;;;;;;;4.32;2.47;;;;;;;;;;4917601;29;20163;-37
2021/10/18 05:47:29;;;;;;;3.92;2.53;;;;;;;;;;4917735;29;20087;-37
2021/10/18 05:49:54;;;;;;;3.97;2.08;;;;;;;;;;4917711;29;20032;-36
2021/10/18 05:52:21;;;;;;;2.83;1.88;;;;;;;;;;4917822;29;20031;-37
2021/10/18 05:54:47;;;;;;;2.50;2.20;;;;;;;;;;4916353;29;20036;-44
2021/10/18 05:57:12;;;;;;;4.15;1.92;;;;;;;;;;4917506;29;20032;-37
2021/10/18 05:59:38;;;;;;;2.60;1.90;;;;;;;;;;4917257;29;20024;-37
2021/10/18 06:02:04;;;;;;;2.80;2.00;;;;;;;;;;4917440;29;20065;-37
2021/10/18 06:04:29;;;;;;;3.13;1.88;;;;;;;;;;4917597;29;20076;-37
2021/10/18 06:06:55;;;;;;;4.03;2.15;;;;;;;;;;4917549;29;20039;-37
2021/10/18 06:09:20;;;;;;;3.22;1.98;;;;;;;;;;4916164;29;20038;-37
2021/10/18 06:11:46;;;;;;;2.58;2.17;;;;;;;;;;4917608;29;20032;-37
2021/10/18 06:14:11;;;;;;;2.30;1.63;;;;;;;;;;4917100;29;20483;-37
2021/10/18 06:16:37;;;;;;;3.05;1.92;;;;;;;;;;4917210;29;20479;-37
2021/10/18 06:19:02;;;;;;;3.20;2.58;;;;;;;;;;4917203;29;20555;-38
2021/10/18 06:21:28;;;;;;;3.75;1.90;;;;;;;;;;4917365;29;20069;-38
2021/10/18 06:23:53;;;;;;;4.72;2.38;;;;;;;;;;4917254;29;20383;-37
2021/10/18 06:26:18;;;;;;;2.67;2.30;;;;;;;;;;4917034;29;20036;-37
2021/10/18 06:28:44;;;;;;;2.85;2.35;;;;;;;;;;4916850;29;20075;-37
2021/10/18 06:31:09;;;;;;;3.63;2.10;;;;;;;;;;4916964;29;20038;-41
2021/10/18 06:33:35;;;;;;;2.78;2.13;;;;;;;;;;4916831;29;20427;-37
2021/10/18 06:36:01;;;;;;;3.88;2.08;;;;;;;;;;4916924;29;20043;-37
2021/10/18 06:38:26;;;;;;;8.35;2.85;;;;;;;;;;4916992;29;20021;-37
2021/10/18 06:40:52;;;;;;;3.97;2.40;;;;;;;;;;4916655;29;20514;-37
2021/10/18 06:43:18;;;;;;;3.78;2.42;;;;;;;;;;4916873;29;20032;-37
2021/10/18 06:45:45;;;;;;;3.65;2.20;;;;;;;;;;4916701;29;20028;-37
2021/10/18 06:48:10;;;;;;;2.63;2.20;;;;;;;;;;4916779;29;20103;-37
2021/10/18 06:50:36;;;;;;;2.75;2.03;;;;;;;;;;4916578;29;20081;-36
2021/10/18 06:53:03;;;;;;;3.10;1.95;;;;;;;;;;4916452;29;20059;-37
2021/10/18 06:55:28;;;;;;;3.35;1.95;;;;;;;;;;4916423;29;20164;-37
2021/10/18 06:57:55;;;;;;;2.33;1.98;;;;;;;;;;4916429;29;20103;-37
2021/10/18 07:00:21;;;;;;;2.85;2.10;;;;;;;;;;4916671;29;20051;-37
2021/10/18 07:02:47;;;;;;;3.08;2.22;;;;;;;;;;4916426;29;20387;-37
2021/10/18 07:05:12;;;;;;;3.42;1.75;;;;;;;;;;4931055;29;20168;-38
2021/10/18 07:07:37;;;;;;;7.47;2.53;;;;;;;;;;4916537;29;20483;-36
2021/10/18 07:10:05;;;;;;;6.00;1.83;;;;;;;;;;4915654;29;20399;-38
2021/10/18 07:12:31;;;;;;;3.80;2.00;;;;;;;;;;4916046;29;20024;-36
2021/10/18 07:14:57;;;;;;;3.25;2.03;;;;;;;;;;4916272;29;20040;-37
2021/10/18 07:17:23;;;;;;;3.30;2.15;;;;;;;;;;4916126;29;20024;-37
2021/10/18 07:19:49;;;;;;;5.50;2.70;;;;;;;;;;4915971;29;20052;-37
2021/10/18 07:22:16;;;;;;;2.60;1.85;;;;;;;;;;4916058;29;20111;-37
2021/10/18 07:24:41;;;;;;;2.72;1.88;;;;;;;;;;4916360;29;20036;-37
2021/10/18 07:27:07;;;;;;;3.13;2.33;;;;;;;;;;4916105;29;20471;-37
2021/10/18 07:29:33;;;;;;;3.97;2.53;;;;;;;;;;4916179;29;20532;-37
2021/10/18 07:31:58;;;;;;;3.55;2.03;;;;;;;;;;4915442;29;20108;-37
2021/10/18 07:34:24;;;;;;;2.17;1.98;;;;;;;;;;4915771;29;20048;-37
2021/10/18 07:36:49;;;;;;;3.97;2.15;;;;;;;;;;4916025;29;20032;-37
2021/10/18 07:39:22;;;;;;;4.43;2.40;;;;;;;;;;4915915;29;20538;-37
2021/10/18 07:41:49;;;;;;;2.25;1.98;;;;;;;;;;4915777;29;20055;-37
2021/10/18 07:44:14;;;;;;;2.53;2.33;;;;;;;;;;4915814;29;20032;-37
2021/10/18 07:46:40;;;;;;;2.78;2.17;;;;;;;;;;4915630;29;20111;-37
2021/10/18 07:49:06;;;;;;;3.42;1.98;;;;;;;;;;4915761;29;20024;-37
2021/10/18 07:51:31;;;;;;;4.80;2.05;;;;;;;;;;4914357;29;20130;-37
2021/10/18 07:53:57;;;;;;;2.60;2.20;;;;;;;;;;4915307;29;20096;-37
2021/10/18 07:56:22;;;;;;;3.55;2.03;;;;;;;;;;4915649;29;20091;-37
2021/10/18 07:58:48;;;;;;;6.68;2.50;;;;;;;;;;4915770;29;20028;-37
2021/10/18 08:01:13;;;;;;;3.58;2.13;;;;;;;;;;4929923;29;20411;-37
2021/10/18 08:03:39;;;;;;;4.32;2.42;;;;;;;;;;4915392;29;20024;-37
2021/10/18 08:06:04;;;;;;;3.67;2.40;;;;;;;;;;4915199;29;20115;-37
2021/10/18 08:08:30;;;;;;;2.65;2.00;;;;;;;;;;4915249;29;20085;-37
2021/10/18 08:10:56;;;;;;;5.40;1.90;;;;;;;;;;4915276;29;20497;-37
2021/10/18 08:13:22;;;;;;;2.85;1.90;;;;;;;;;;4915415;29;20387;-37
2021/10/18 08:15:48;;;;;;;4.00;1.77;;;;;;;;;;4915361;29;20044;-37
2021/10/18 08:18:13;;;;;;;8.27;2.42;;;;;;;;;;4915076;29;20032;-37
2021/10/18 08:20:43;;;;;;;3.30;1.85;;;;;;;;;;4914916;29;20514;-37
2021/10/18 08:23:08;;;;;;;3.60;1.92;;;;;;;;;;4915105;29;20035;-37
2021/10/18 08:25:34;;;;;;;2.53;1.77;;;;;;;;;;4915047;29;20040;-37
2021/10/18 08:28:00;;;;;;;2.90;1.92;;;;;;;;;;4915085;29;20024;-37
2021/10/18 08:30:25;;;;;;;4.35;1.83;;;;;;;;;;4915121;29;20050;-37
2021/10/18 08:32:51;;;;;;;4.68;2.13;;;;;;;;;;4914738;29;20056;-37
2021/10/18 08:35:16;;;;;;;3.05;1.92;;;;;;;;;;4914935;29;20028;-37
2021/10/18 08:40:31;;;;;;;2.80;2.08;;;;;;;;;;4913861;29;20448;-37
2021/10/18 08:45:24;;;;;;;2.78;1.75;;;;;;;;;;4914996;29;20031;-37
2021/10/18 08:47:52;;;;;;;2.00;1.48;;;;;;;;;;4915258;29;20024;-37
2021/10/18 08:50:17;;;;;;;4.22;1.92;;;;;;;;;;4914999;29;20077;-37
2021/10/18 08:52:43;;;;;;;3.13;2.17;;;;;;;;;;4915157;29;20476;-37
2021/10/18 08:55:08;;;;;;;4.80;2.30;;;;;;;;;;4914926;29;20524;-37
2021/10/18 08:57:34;;;;;;;2.28;1.67;;;;;;;;;;4915090;29;20024;-37
2021/10/18 08:59:59;;;;;;;3.85;1.98;;;;;;;;;;4914781;29;20515;-37
2021/10/18 09:02:39;;;;;;;1.60;1.50;;;;;;;;;;4914756;29;20025;-37
2021/10/18 09:05:07;;;;;;;6.28;2.22;;;;;;;;;;4914637;29;20048;-37
2021/10/18 09:07:36;;;;;;;2.67;1.92;;;;;;;;;;4914699;29;20080;-37
2021/10/18 09:10:09;;;;;;;3.08;2.05;;;;;;;;;;4914666;29;20564;-37
2021/10/18 09:12:39;;;;;;;2.00;1.75;;;;;;;;;;4914665;29;20091;-37
2021/10/18 09:15:24;;;;;;;3.65;1.67;;;;;;;;;;4914575;29;20058;-37
2021/10/18 09:17:53;;;;;;;2.70;1.60;;;;;;;;;;4914917;29;20100;-37
2021/10/18 09:20:29;;;;;;;2.13;1.73;;;;;;;;;;4914582;29;20028;-37
2021/10/18 09:23:14;;;;;;;2.88;1.67;;;;;;;;;;4914642;29;20539;-37
2021/10/18 09:25:39;;;;;;;2.60;1.52;;;;;;;;;;4914790;29;20064;-37
2021/10/18 09:28:15;;;;;;;2.90;1.75;;;;;;;;;;4914546;29;20051;-37
2021/10/18 09:30:43;;;;;;;3.60;2.00;;;;;;;;;;4914595;29;20087;-37
2021/10/18 09:33:17;;;;;;;2.63;1.50;;;;;;;;;;4914959;29;20048;-37
2021/10/18 09:35:43;;;;;;;2.38;1.75;;;;;;;;;;4918049;29;20036;-37
2021/10/18 09:38:10;;;;;;;4.07;1.70;;;;;;;;;;4917867;29;20095;-37
2021/10/18 09:40:38;;;;;;;1.80;1.58;;;;;;;;;;4918138;29;20060;-37
2021/10/18 09:43:17;;;;;;;3.67;1.70;;;;;;;;;;4917974;29;20043;-37
2021/10/18 09:46:01;;;;;;;3.75;2.13;;;;;;;;;;4917792;29;20116;-37
2021/10/18 10:53:04;;;;;;;2.08;1.63;;;;;;;;;;4916596;29;20047;-38
2021/10/18 10:55:33;;;;;;;3.05;1.52;;;;;;;;;;4916542;29;20025;-37
2021/10/18 10:58:01;;;;;;;4.95;1.60;;;;;;;;;;4916433;29;20036;-37
2021/10/18 11:00:37;;;;;;;2.08;1.65;;;;;;;;;;4916508;29;20136;-37
2021/10/18 11:03:41;;;;;;;4.80;1.50;;;;;;;;;;4916326;29;20055;-37
2021/10/18 11:06:06;;;;;;;;;;;;;;;;;;4907597;29;20534;-37
2021/10/18 11:08:33;;;;;;;2.05;1.67;;;;;;;;;;4916511;29;19962;-37
2021/10/18 11:11:08;;;;;;;7.38;1.45;;;;;;;;;;4916833;29;20039;-37
2021/10/18 11:13:43;;;;;;;4.68;1.90;;;;;;;;;;4915963;29;20044;-37
2021/10/18 11:16:08;;;;;;;2.55;1.75;;;;;;;;;;4916328;29;20079;-37
2021/10/18 11:18:34;;;;;;;2.60;1.65;;;;;;;;;;4914875;29;20557;-37
2021/10/18 11:21:16;;;;;;;2.35;1.98;;;;;;;;;;4930541;29;20039;-37
2021/10/18 11:24:00;;;;;;;2.45;1.35;;;;;;;;;;4916056;29;20079;-37
2021/10/18 11:26:26;;;;;;;4.63;2.15;;;;;;;;;;4916202;29;20036;-37
2021/10/18 11:28:55;;;;;;;2.42;1.63;;;;;;;;;;4916138;29;20032;-37
2021/10/18 11:31:25;;;;;;;3.40;1.85;;;;;;;;;;4915927;29;20119;-37
2021/10/18 11:33:59;;;;;;;3.97;2.53;;;;;;;;;;4915521;29;20087;-37
2021/10/18 11:36:25;;;;;;;;;;;;;;;;;;4916270;29;20044;-37
2021/10/18 11:39:04;;;;;;;2.35;1.70;;;;;;;;;;4915720;29;19967;-37
2021/10/18 11:41:30;;;;;;;1.45;1.35;;;;;;;;;;4915771;29;20044;-37
2021/10/18 11:43:55;;;;;;;2.00;1.50;;;;;;;;;;4915675;29;20024;-37
2021/10/18 11:46:21;;;;;;;3.22;1.27;;;;;;;;;;4914676;29;20062;-37
2021/10/18 11:48:46;;;;;;;1.98;1.35;;;;;;;;;;4915874;29;20036;-42
2021/10/18 11:51:11;;;;;;;3.53;1.90;;;;;;;;;;4915516;29;20041;-37
2021/10/18 11:53:41;;;;;;;2.03;1.67;;;;;;;;;;4914240;29;20036;-37
2021/10/18 11:56:09;;;;;;;3.88;1.52;;;;;;;;;;4914948;29;20382;-37
2021/10/18 11:58:37;;;;;;;1.98;1.60;;;;;;;;;;4915556;29;20020;-37
2021/10/18 12:01:03;;;;;;;2.75;1.63;;;;;;;;;;4915400;29;20068;-37
2021/10/18 12:03:29;;;;;;;2.10;1.17;;;;;;;;;;4915263;29;20052;-37
2021/10/18 12:05:55;;;;;;;2.95;1.92;;;;;;;;;;4915295;29;20044;-37
2021/10/18 12:08:22;;;;;;;3.40;1.92;;;;;;;;;;4915311;29;20065;-37
2021/10/18 12:10:50;;;;;;;2.75;1.70;;;;;;;;;;4915562;29;20036;-37
2021/10/18 12:13:26;;;;;;;5.78;2.38;;;;;;;;;;4915152;29;20028;-37
2021/10/18 12:15:52;;;;;;;6.05;2.13;;;;;;;;;;4914056;29;20063;-37
2021/10/18 12:18:19;;;;;;;2.00;1.35;;;;;;;;;;4915109;29;20421;-37
2021/10/18 12:20:46;;;;;;;1.90;1.65;;;;;;;;;;4915089;29;20115;-37
2021/10/18 12:23:17;;;;;;;1.50;1.40;;;;;;;;;;4915143;29;20501;-37
2021/10/18 12:25:51;;;;;;;4.80;1.60;;;;;;;;;;4913808;29;20115;-37
2021/10/18 12:28:43;;;;;;;1.90;1.25;;;;;;;;;;4915100;29;20028;-37
2021/10/18 12:31:27;;;;;;;3.92;1.35;;;;;;;;;;4911345;29;20048;-37
2021/10/18 12:34:00;;;;;;;2.35;1.50;;;;;;;;;;4914731;29;20052;-37
2021/10/18 12:36:26;;;;;;;4.00;1.52;;;;;;;;;;4915137;29;20110;-37
2021/10/18 12:38:51;;;;;;;3.83;1.77;;;;;;;;;;4914975;29;20440;-37
2021/10/18 12:41:19;;;;;;;2.58;1.55;;;;;;;;;;4914966;29;20040;-37
2021/10/18 12:43:45;;;;;;;3.72;1.70;;;;;;;;;;4914887;29;20103;-37
2021/10/18 12:46:14;;;;;;;2.05;1.30;;;;;;;;;;4913477;29;20534;-37
2021/10/18 12:48:40;;;;;;;2.55;1.98;;;;;;;;;;4914987;29;20076;-40
2021/10/18 12:51:05;;;;;;;2.33;1.73;;;;;;;;;;4914852;29;20040;-37
2021/10/18 12:53:31;;;;;;;2.65;2.00;;;;;;;;;;4914793;29;20032;-37
2021/10/18 12:55:58;;;;;;;2.85;1.70;;;;;;;;;;4914853;29;20048;-37
2021/10/18 12:58:23;;;;;;;2.50;1.23;;;;;;;;;;4914811;29;20030;-37
2021/10/18 13:00:49;;;;;;;1.90;1.27;;;;;;;;;;4914865;29;20036;-38
2021/10/18 13:03:18;;;;;;;3.45;1.40;;;;;;;;;;4914949;29;20028;-37
2021/10/18 13:05:45;;;;;;;2.45;1.50;;;;;;;;;;4914788;29;20115;-37
2021/10/18 13:08:12;;;;;;;1.52;1.20;;;;;;;;;;4915492;29;20420;-37
2021/10/18 13:10:38;;;;;;;4.20;1.35;;;;;;;;;;4918361;29;20547;-37
2021/10/18 13:13:06;;;;;;;1.83;1.55;;;;;;;;;;4918507;29;20031;-37
2021/10/18 13:15:32;;;;;;;3.40;1.35;;;;;;;;;;4918233;29;20040;-37
2021/10/18 13:17:58;;;;;;;2.83;1.70;;;;;;;;;;4918506;29;20051;-37
2021/10/18 13:20:25;;;;;;;1.73;1.48;;;;;;;;;;4918278;29;20063;-37
2021/10/18 13:22:52;;;;;;;1.85;1.50;;;;;;;;;;4918137;29;20020;-37
2021/10/18 13:25:19;;;;;;;1.40;1.17;;;;;;;;;;4918191;29;20043;-38
2021/10/18 13:27:44;;;;;;;1.15;1.05;;;;;;;;;;4916841;29;20649;-38
2021/10/18 13:30:11;;;;;;;2.15;1.23;;;;;;;;;;4918069;29;20104;-37
2021/10/18 13:32:36;;;;;;;2.70;1.60;;;;;;;;;;4917919;29;20067;-37
2021/10/18 13:35:06;;;;;;;2.47;1.17;;;;;;;;;;4917687;29;20507;-37
2021/10/18 13:37:32;;;;;;;3.25;2.05;;;;;;;;;;4918316;29;20435;-37
2021/10/18 13:39:57;;;;;;;3.80;1.60;;;;;;;;;;4917953;29;20111;-37
2021/10/18 13:42:23;;;;;;;1.95;1.27;;;;;;;;;;4917801;29;20020;-37
2021/10/18 13:44:49;;;;;;;1.33;1.23;;;;;;;;;;4917819;29;20506;-37
2021/10/18 13:47:14;;;;;;;2.92;1.60;;;;;;;;;;4917721;29;20384;-37
2021/10/18 13:49:39;;;;;;;1.58;0.85;;;;;;;;;;4918074;29;20035;-37
2021/10/18 13:52:05;;;;;;;2.42;1.20;;;;;;;;;;4917626;29;20499;-37
2021/10/18 13:54:32;;;;;;;2.35;1.30;;;;;;;;;;4917564;29;20047;-37
2021/10/18 13:56:57;;;;;;;2.45;1.45;;;;;;;;;;4917645;29;20020;-37
2021/10/18 13:59:23;;;;;;;3.50;1.48;;;;;;;;;;4917422;29;20511;-38
2021/10/18 14:01:48;;;;;;;2.28;1.38;;;;;;;;;;4917826;29;20482;-37
2021/10/18 14:04:14;;;;;;;5.88;1.88;;;;;;;;;;4917394;29;20028;-37
2021/10/18 14:06:40;;;;;;;5.18;1.75;;;;;;;;;;4917381;29;20028;-37
2021/10/18 14:09:06;;;;;;;2.47;1.50;;;;;;;;;;4917318;29;20036;-37
2021/10/18 14:11:31;;;;;;;2.15;1.60;;;;;;;;;;4917317;29;20077;-37
2021/10/18 14:13:57;;;;;;;1.55;1.40;;;;;;;;;;4917308;29;20399;-38
2021/10/18 14:16:23;;;;;;;3.05;1.63;;;;;;;;;;4917216;29;20021;-37
2021/10/18 14:18:48;;;;;;;2.67;1.17;;;;;;;;;;4916763;29;20097;-37
2021/10/18 14:21:14;;;;;;;1.25;1.15;;;;;;;;;;4917225;29;20577;-37
2021/10/18 14:23:39;;;;;;;2.70;1.45;;;;;;;;;;4917064;29;20036;-37
2021/10/18 14:26:05;;;;;;;1.52;1.23;;;;;;;;;;4917290;29;20031;-37
2021/10/18 14:28:31;;;;;;;3.42;1.55;;;;;;;;;;4917116;29;20039;-36
2021/10/18 14:30:57;;;;;;;2.83;1.60;;;;;;;;;;4917044;29;20024;-37
2021/10/18 14:33:23;;;;;;;1.38;1.27;;;;;;;;;;4916664;29;20055;-37
2021/10/18 14:35:48;;;;;;;3.83;1.83;;;;;;;;;;4917111;29;20380;-37
2021/10/18 14:38:14;;;;;;;1.85;1.38;;;;;;;;;;4916843;29;20036;-37
2021/10/18 14:40:39;;;;;;;3.72;1.52;;;;;;;;;;4916810;29;20028;-37
2021/10/18 14:43:05;;;;;;;3.65;1.25;;;;;;;;;;4916708;29;20032;-37
2021/10/18 14:45:31;;;;;;;1.75;1.35;;;;;;;;;;4916693;29;20095;-38
2021/10/18 14:47:56;;;;;;;1.98;1.20;;;;;;;;;;4916729;29;20036;-37
2021/10/18 14:50:22;;;;;;;6.93;1.80;;;;;;;;;;4916625;29;20478;-37
2021/10/18 14:52:47;;;;;;;1.75;1.13;;;;;;;;;;4916678;29;20032;-37
2021/10/18 14:55:15;;;;;;;3.67;1.40;;;;;;;;;;4916538;29;20436;-37
2021/10/18 14:57:41;;;;;;;2.85;1.70;;;;;;;;;;4916595;29;20092;-37
2021/10/18 15:00:07;;;;;;;2.38;1.63;;;;;;;;;;4916433;29;20024;-37
2021/10/18 15:02:33;;;;;;;1.30;1.20;;;;;;;;;;4916635;29;20028;-37
2021/10/18 15:04:59;;;;;;;2.35;1.50;;;;;;;;;;4916424;29;20023;-37
2021/10/18 15:07:24;;;;;;;3.97;1.77;;;;;;;;;;4916617;29;20047;-37
2021/10/18 15:09:50;;;;;;;1.50;1.17;;;;;;;;;;4916603;29;20710;-37
2021/10/18 15:12:17;;;;;;;3.13;1.35;;;;;;;;;;4916544;29;20032;-37
2021/10/18 15:14:43;;;;;;;2.38;1.30;;;;;;;;;;4915104;29;20036;-37
2021/10/18 15:17:09;;;;;;;1.15;1.05;;;;;;;;;;4916191;29;20044;-36
2021/10/18 15:19:37;;;;;;;1.55;1.45;;;;;;;;;;4916356;29;20076;-37
2021/10/18 15:22:07;;;;;;;1.95;1.55;;;;;;;;;;4915940;29;20043;-37
2021/10/18 15:24:32;;;;;;;1.83;1.27;;;;;;;;;;4916044;29;20119;-37
2021/10/18 15:26:58;;;;;;;2.05;1.20;;;;;;;;;;4914754;29;20460;-37
2021/10/18 15:29:23;;;;;;;1.55;1.10;;;;;;;;;;4915907;29;20028;-37
2021/10/18 15:31:50;;;;;;;1.90;1.50;;;;;;;;;;4915281;29;20024;-38
2021/10/18 15:34:16;;;;;;;2.47;1.70;;;;;;;;;;4915712;29;20555;-37
2021/10/18 15:36:41;;;;;;;1.23;1.10;;;;;;;;;;4930352;29;20036;-37
2021/10/18 15:39:07;;;;;;;2.08;1.17;;;;;;;;;;4914638;29;20031;-37
2021/10/18 15:41:32;;;;;;;1.80;1.48;;;;;;;;;;4915839;29;20047;-37
2021/10/18 15:44:00;;;;;;;1.42;1.30;;;;;;;;;;4915649;29;20148;-37
2021/10/18 15:46:26;;;;;;;1.58;0.90;;;;;;;;;;4915850;29;20036;-37
2021/10/18 15:48:51;;;;;;;2.00;1.40;;;;;;;;;;4915695;29;20024;-37